Amonate, Virginia
Current Conditions -  °F | °C
As of 3:35 AM on Saturday 25 Oct 2014 (Local Time) from KJFZ Reporting Station
Clear Clear  
Wind Chill: 42°   Ceiling: Unl
Heat Index: 42°   Visibility: 10mi
Dew Point: 39°   Wind: 3mph
Humidity: 88%   Direction: 300°WNW
Pressure: 30.08"   Gusts: NA
Location:  37.19°N, 81.64°W
Report Text: KJFZ 250735Z AUTO 30003KT 10SM CLR 06/04 A3008 RMK AO2 T00580039
Loading
Personal Weather Stations






























Interactive Weather Map
Tropical Storm Tracking
New forecast layout! Learn more

10-Day Weather Forecast

Advertisements
Track Severe Weather on mobile